sensor_id;sensor_type;location;lat;lon;timestamp;P1;durP1;ratioP1;P2;durP2;ratioP2
64601;SDS011;68371;42.630;23.192;2023-07-09T00:01:45;6.10;;;3.10;;
64601;SDS011;68371;42.630;23.192;2023-07-09T00:04:11;5.90;;;2.80;;
64601;SDS011;68371;42.630;23.192;2023-07-09T00:06:39;4.85;;;2.80;;
64601;SDS011;68371;42.630;23.192;2023-07-09T00:09:09;9.52;;;2.92;;
64601;SDS011;68371;42.630;23.192;2023-07-09T00:11:41;5.18;;;3.10;;
64601;SDS011;68371;42.630;23.192;2023-07-09T00:14:09;6.45;;;3.05;;
64601;SDS011;68371;42.630;23.192;2023-07-09T00:16:37;5.95;;;2.80;;
64601;SDS011;68371;42.630;23.192;2023-07-09T00:19:05;7.28;;;3.15;;
64601;SDS011;68371;42.630;23.192;2023-07-09T00:21:38;4.78;;;2.70;;
64601;SDS011;68371;42.630;23.192;2023-07-09T00:24:06;7.43;;;3.05;;
64601;SDS011;68371;42.630;23.192;2023-07-09T00:26:35;4.07;;;2.83;;
64601;SDS011;68371;42.630;23.192;2023-07-09T00:29:08;4.80;;;2.90;;
64601;SDS011;68371;42.630;23.192;2023-07-09T00:31:36;4.20;;;2.85;;
64601;SDS011;68371;42.630;23.192;2023-07-09T00:34:05;5.00;;;3.03;;
64601;SDS011;68371;42.630;23.192;2023-07-09T00:36:33;9.07;;;2.90;;
64601;SDS011;68371;42.630;23.192;2023-07-09T00:39:00;6.90;;;3.08;;
64601;SDS011;68371;42.630;23.192;2023-07-09T00:41:29;5.63;;;2.97;;
64601;SDS011;68371;42.630;23.192;2023-07-09T00:44:01;7.53;;;3.08;;
64601;SDS011;68371;42.630;23.192;2023-07-09T00:49:59;4.05;;;2.97;;
64601;SDS011;68371;42.630;23.192;2023-07-09T00:52:35;7.63;;;3.15;;
64601;SDS011;68371;42.630;23.192;2023-07-09T00:55:06;6.55;;;3.13;;
64601;SDS011;68371;42.630;23.192;2023-07-09T00:57:39;3.85;;;2.97;;
64601;SDS011;68371;42.630;23.192;2023-07-09T01:00:10;6.72;;;2.97;;
64601;SDS011;68371;42.630;23.192;2023-07-09T01:02:40;4.43;;;2.85;;
64601;SDS011;68371;42.630;23.192;2023-07-09T01:05:11;3.92;;;2.88;;
64601;SDS011;68371;42.630;23.192;2023-07-09T01:07:42;7.68;;;3.30;;
64601;SDS011;68371;42.630;23.192;2023-07-09T01:10:11;3.17;;;2.53;;
64601;SDS011;68371;42.630;23.192;2023-07-09T01:12:38;7.00;;;3.40;;
64601;SDS011;68371;42.630;23.192;2023-07-09T01:15:06;6.65;;;3.35;;
64601;SDS011;68371;42.630;23.192;2023-07-09T01:17:35;5.70;;;3.28;;
64601;SDS011;68371;42.630;23.192;2023-07-09T01:20:02;5.60;;;2.83;;
64601;SDS011;68371;42.630;23.192;2023-07-09T01:22:31;6.22;;;2.90;;
64601;SDS011;68371;42.630;23.192;2023-07-09T01:24:59;4.00;;;2.63;;
64601;SDS011;68371;42.630;23.192;2023-07-09T01:27:29;4.50;;;2.90;;
64601;SDS011;68371;42.630;23.192;2023-07-09T01:29:58;4.32;;;3.10;;
64601;SDS011;68371;42.630;23.192;2023-07-09T01:32:27;4.90;;;2.75;;
64601;SDS011;68371;42.630;23.192;2023-07-09T01:34:58;7.32;;;3.10;;
64601;SDS011;68371;42.630;23.192;2023-07-09T01:37:30;5.68;;;2.83;;
64601;SDS011;68371;42.630;23.192;2023-07-09T01:40:00;10.73;;;3.15;;
64601;SDS011;68371;42.630;23.192;2023-07-09T01:42:30;8.40;;;2.85;;
64601;SDS011;68371;42.630;23.192;2023-07-09T01:44:57;3.90;;;2.80;;
64601;SDS011;68371;42.630;23.192;2023-07-09T01:47:24;6.32;;;3.10;;
64601;SDS011;68371;42.630;23.192;2023-07-09T01:49:51;6.60;;;3.13;;
64601;SDS011;68371;42.630;23.192;2023-07-09T01:52:22;6.65;;;3.22;;
64601;SDS011;68371;42.630;23.192;2023-07-09T01:54:53;7.50;;;3.20;;
64601;SDS011;68371;42.630;23.192;2023-07-09T01:57:20;5.35;;;3.05;;
64601;SDS011;68371;42.630;23.192;2023-07-09T01:59:49;4.63;;;3.10;;
64601;SDS011;68371;42.630;23.192;2023-07-09T02:02:18;17.75;;;3.45;;
64601;SDS011;68371;42.630;23.192;2023-07-09T02:04:46;4.55;;;3.25;;
64601;SDS011;68371;42.630;23.192;2023-07-09T02:07:13;6.32;;;3.13;;
64601;SDS011;68371;42.630;23.192;2023-07-09T02:09:41;5.68;;;3.05;;
64601;SDS011;68371;42.630;23.192;2023-07-09T02:12:10;6.53;;;3.20;;
64601;SDS011;68371;42.630;23.192;2023-07-09T02:14:38;6.32;;;3.25;;
64601;SDS011;68371;42.630;23.192;2023-07-09T02:17:06;8.82;;;3.03;;
64601;SDS011;68371;42.630;23.192;2023-07-09T02:19:33;5.93;;;2.90;;
64601;SDS011;68371;42.630;23.192;2023-07-09T02:22:00;5.47;;;2.85;;
64601;SDS011;68371;42.630;23.192;2023-07-09T02:24:27;6.63;;;3.47;;
64601;SDS011;68371;42.630;23.192;2023-07-09T02:26:53;4.53;;;3.28;;
64601;SDS011;68371;42.630;23.192;2023-07-09T02:29:22;4.45;;;2.65;;
64601;SDS011;68371;42.630;23.192;2023-07-09T02:31:50;9.23;;;3.78;;
64601;SDS011;68371;42.630;23.192;2023-07-09T02:34:17;4.28;;;2.83;;
64601;SDS011;68371;42.630;23.192;2023-07-09T02:36:46;5.50;;;3.00;;
64601;SDS011;68371;42.630;23.192;2023-07-09T02:39:13;7.53;;;3.08;;
64601;SDS011;68371;42.630;23.192;2023-07-09T02:41:40;7.18;;;3.08;;
64601;SDS011;68371;42.630;23.192;2023-07-09T02:44:07;4.03;;;2.80;;
64601;SDS011;68371;42.630;23.192;2023-07-09T02:46:35;4.70;;;3.20;;
64601;SDS011;68371;42.630;23.192;2023-07-09T02:49:02;5.95;;;2.88;;
64601;SDS011;68371;42.630;23.192;2023-07-09T02:51:30;6.40;;;3.42;;
64601;SDS011;68371;42.630;23.192;2023-07-09T02:53:58;4.30;;;2.78;;
64601;SDS011;68371;42.630;23.192;2023-07-09T02:56:27;4.68;;;2.92;;
64601;SDS011;68371;42.630;23.192;2023-07-09T02:58:54;4.65;;;3.00;;
64601;SDS011;68371;42.630;23.192;2023-07-09T03:01:20;3.75;;;2.97;;
64601;SDS011;68371;42.630;23.192;2023-07-09T03:03:51;10.60;;;3.30;;
64601;SDS011;68371;42.630;23.192;2023-07-09T03:06:18;6.30;;;3.20;;
64601;SDS011;68371;42.630;23.192;2023-07-09T03:08:46;6.40;;;2.95;;
64601;SDS011;68371;42.630;23.192;2023-07-09T03:11:13;5.85;;;3.10;;
64601;SDS011;68371;42.630;23.192;2023-07-09T03:13:41;4.90;;;2.63;;
64601;SDS011;68371;42.630;23.192;2023-07-09T03:16:08;6.00;;;2.88;;
64601;SDS011;68371;42.630;23.192;2023-07-09T03:18:35;5.43;;;3.80;;
64601;SDS011;68371;42.630;23.192;2023-07-09T03:21:03;5.20;;;3.30;;
64601;SDS011;68371;42.630;23.192;2023-07-09T03:23:30;4.78;;;3.20;;
64601;SDS011;68371;42.630;23.192;2023-07-09T03:25:57;4.82;;;3.10;;
64601;SDS011;68371;42.630;23.192;2023-07-09T03:28:25;4.60;;;2.97;;
64601;SDS011;68371;42.630;23.192;2023-07-09T03:30:53;6.68;;;3.00;;
64601;SDS011;68371;42.630;23.192;2023-07-09T03:33:21;6.68;;;3.08;;
64601;SDS011;68371;42.630;23.192;2023-07-09T03:35:48;6.68;;;3.13;;
64601;SDS011;68371;42.630;23.192;2023-07-09T03:38:17;5.32;;;3.00;;
64601;SDS011;68371;42.630;23.192;2023-07-09T03:40:49;5.45;;;3.45;;
64601;SDS011;68371;42.630;23.192;2023-07-09T03:43:17;5.40;;;3.40;;
64601;SDS011;68371;42.630;23.192;2023-07-09T03:45:44;5.45;;;3.30;;
64601;SDS011;68371;42.630;23.192;2023-07-09T03:48:12;4.85;;;3.17;;
64601;SDS011;68371;42.630;23.192;2023-07-09T03:50:41;5.40;;;3.10;;
64601;SDS011;68371;42.630;23.192;2023-07-09T03:53:09;11.07;;;3.35;;
64601;SDS011;68371;42.630;23.192;2023-07-09T03:55:37;7.32;;;4.00;;
64601;SDS011;68371;42.630;23.192;2023-07-09T03:58:04;8.18;;;3.30;;
64601;SDS011;68371;42.630;23.192;2023-07-09T04:00:32;19.58;;;3.55;;
64601;SDS011;68371;42.630;23.192;2023-07-09T04:02:59;10.05;;;3.90;;
64601;SDS011;68371;42.630;23.192;2023-07-09T04:05:26;6.88;;;3.30;;
64601;SDS011;68371;42.630;23.192;2023-07-09T04:07:53;4.93;;;3.47;;
64601;SDS011;68371;42.630;23.192;2023-07-09T04:10:21;11.60;;;3.42;;
64601;SDS011;68371;42.630;23.192;2023-07-09T04:12:50;4.38;;;3.35;;
64601;SDS011;68371;42.630;23.192;2023-07-09T04:15:17;9.15;;;3.42;;
64601;SDS011;68371;42.630;23.192;2023-07-09T04:17:44;6.68;;;3.40;;
64601;SDS011;68371;42.630;23.192;2023-07-09T04:20:11;6.75;;;3.38;;
64601;SDS011;68371;42.630;23.192;2023-07-09T04:22:39;6.18;;;3.50;;
64601;SDS011;68371;42.630;23.192;2023-07-09T04:25:07;7.00;;;3.40;;
64601;SDS011;68371;42.630;23.192;2023-07-09T04:27:36;4.82;;;3.15;;
64601;SDS011;68371;42.630;23.192;2023-07-09T04:30:05;5.15;;;3.30;;
64601;SDS011;68371;42.630;23.192;2023-07-09T04:32:35;8.05;;;3.45;;
64601;SDS011;68371;42.630;23.192;2023-07-09T04:35:03;10.27;;;3.75;;
64601;SDS011;68371;42.630;23.192;2023-07-09T04:37:31;10.77;;;3.60;;
64601;SDS011;68371;42.630;23.192;2023-07-09T04:39:58;5.28;;;3.58;;
64601;SDS011;68371;42.630;23.192;2023-07-09T04:42:25;6.32;;;3.35;;
64601;SDS011;68371;42.630;23.192;2023-07-09T04:44:52;3.95;;;3.08;;
64601;SDS011;68371;42.630;23.192;2023-07-09T04:47:20;6.85;;;3.28;;
64601;SDS011;68371;42.630;23.192;2023-07-09T04:49:47;7.18;;;3.05;;
64601;SDS011;68371;42.630;23.192;2023-07-09T04:52:13;4.70;;;3.35;;
64601;SDS011;68371;42.630;23.192;2023-07-09T04:54:41;4.70;;;2.90;;
64601;SDS011;68371;42.630;23.192;2023-07-09T04:57:09;8.65;;;4.07;;
64601;SDS011;68371;42.630;23.192;2023-07-09T04:59:36;4.18;;;3.20;;
64601;SDS011;68371;42.630;23.192;2023-07-09T05:02:03;6.13;;;3.25;;
64601;SDS011;68371;42.630;23.192;2023-07-09T05:04:31;7.63;;;3.63;;
64601;SDS011;68371;42.630;23.192;2023-07-09T05:06:58;7.25;;;3.90;;
64601;SDS011;68371;42.630;23.192;2023-07-09T05:09:25;7.30;;;3.70;;
64601;SDS011;68371;42.630;23.192;2023-07-09T05:11:52;10.88;;;3.40;;
64601;SDS011;68371;42.630;23.192;2023-07-09T05:14:18;5.78;;;2.90;;
64601;SDS011;68371;42.630;23.192;2023-07-09T05:16:45;7.07;;;2.97;;
64601;SDS011;68371;42.630;23.192;2023-07-09T05:19:12;4.75;;;2.78;;
64601;SDS011;68371;42.630;23.192;2023-07-09T05:21:40;8.82;;;2.67;;
64601;SDS011;68371;42.630;23.192;2023-07-09T05:24:07;6.32;;;2.90;;
64601;SDS011;68371;42.630;23.192;2023-07-09T05:26:34;4.07;;;2.90;;
64601;SDS011;68371;42.630;23.192;2023-07-09T05:29:02;7.43;;;2.97;;
64601;SDS011;68371;42.630;23.192;2023-07-09T05:31:30;9.05;;;3.10;;
64601;SDS011;68371;42.630;23.192;2023-07-09T05:33:56;4.82;;;2.88;;
64601;SDS011;68371;42.630;23.192;2023-07-09T05:36:25;4.88;;;2.75;;
64601;SDS011;68371;42.630;23.192;2023-07-09T05:38:56;6.25;;;3.08;;
64601;SDS011;68371;42.630;23.192;2023-07-09T05:41:22;7.18;;;2.70;;
64601;SDS011;68371;42.630;23.192;2023-07-09T05:43:49;7.63;;;2.70;;
64601;SDS011;68371;42.630;23.192;2023-07-09T05:46:17;7.22;;;2.78;;
64601;SDS011;68371;42.630;23.192;2023-07-09T05:48:45;4.07;;;2.90;;
64601;SDS011;68371;42.630;23.192;2023-07-09T05:51:12;7.90;;;3.00;;
64601;SDS011;68371;42.630;23.192;2023-07-09T05:53:38;7.10;;;3.10;;
64601;SDS011;68371;42.630;23.192;2023-07-09T05:56:07;4.40;;;2.63;;
64601;SDS011;68371;42.630;23.192;2023-07-09T05:58:33;5.97;;;3.03;;
64601;SDS011;68371;42.630;23.192;2023-07-09T06:01:00;4.07;;;2.70;;
64601;SDS011;68371;42.630;23.192;2023-07-09T06:03:28;4.85;;;2.90;;
64601;SDS011;68371;42.630;23.192;2023-07-09T06:05:56;3.97;;;2.60;;
64601;SDS011;68371;42.630;23.192;2023-07-09T06:08:25;9.02;;;2.70;;
64601;SDS011;68371;42.630;23.192;2023-07-09T06:10:53;4.63;;;2.75;;
64601;SDS011;68371;42.630;23.192;2023-07-09T06:13:23;5.72;;;3.22;;
64601;SDS011;68371;42.630;23.192;2023-07-09T06:15:50;6.32;;;2.85;;
64601;SDS011;68371;42.630;23.192;2023-07-09T06:18:18;7.32;;;2.85;;
64601;SDS011;68371;42.630;23.192;2023-07-09T06:20:48;5.57;;;2.60;;
64601;SDS011;68371;42.630;23.192;2023-07-09T06:23:16;3.38;;;2.53;;
64601;SDS011;68371;42.630;23.192;2023-07-09T06:25:43;7.20;;;2.60;;
64601;SDS011;68371;42.630;23.192;2023-07-09T06:28:12;6.10;;;2.63;;
64601;SDS011;68371;42.630;23.192;2023-07-09T06:30:42;4.47;;;2.40;;
64601;SDS011;68371;42.630;23.192;2023-07-09T06:33:09;8.85;;;2.90;;
64601;SDS011;68371;42.630;23.192;2023-07-09T06:35:36;7.47;;;2.65;;
64601;SDS011;68371;42.630;23.192;2023-07-09T06:38:04;4.75;;;2.40;;
64601;SDS011;68371;42.630;23.192;2023-07-09T06:40:31;5.93;;;2.40;;
64601;SDS011;68371;42.630;23.192;2023-07-09T06:42:58;11.35;;;2.40;;
64601;SDS011;68371;42.630;23.192;2023-07-09T06:45:25;5.03;;;2.47;;
64601;SDS011;68371;42.630;23.192;2023-07-09T06:47:53;10.13;;;2.60;;
64601;SDS011;68371;42.630;23.192;2023-07-09T06:50:20;5.82;;;2.67;;
64601;SDS011;68371;42.630;23.192;2023-07-09T06:52:47;6.38;;;2.65;;
64601;SDS011;68371;42.630;23.192;2023-07-09T06:55:13;3.38;;;2.33;;
64601;SDS011;68371;42.630;23.192;2023-07-09T06:57:40;3.75;;;2.30;;
64601;SDS011;68371;42.630;23.192;2023-07-09T07:00:07;9.27;;;2.55;;
64601;SDS011;68371;42.630;23.192;2023-07-09T07:02:35;3.25;;;2.25;;
64601;SDS011;68371;42.630;23.192;2023-07-09T07:05:03;4.32;;;2.50;;
64601;SDS011;68371;42.630;23.192;2023-07-09T07:07:30;8.40;;;2.67;;
64601;SDS011;68371;42.630;23.192;2023-07-09T07:09:57;5.18;;;2.28;;
64601;SDS011;68371;42.630;23.192;2023-07-09T07:12:25;5.45;;;2.78;;
64601;SDS011;68371;42.630;23.192;2023-07-09T07:14:55;4.40;;;3.05;;
64601;SDS011;68371;42.630;23.192;2023-07-09T07:17:22;14.70;;;2.50;;
64601;SDS011;68371;42.630;23.192;2023-07-09T07:19:49;4.85;;;2.35;;
64601;SDS011;68371;42.630;23.192;2023-07-09T07:22:18;4.28;;;2.65;;
64601;SDS011;68371;42.630;23.192;2023-07-09T07:24:45;8.00;;;2.40;;
64601;SDS011;68371;42.630;23.192;2023-07-09T07:27:11;3.95;;;2.58;;
64601;SDS011;68371;42.630;23.192;2023-07-09T07:29:38;2.72;;;2.00;;
64601;SDS011;68371;42.630;23.192;2023-07-09T07:32:05;4.40;;;2.50;;
64601;SDS011;68371;42.630;23.192;2023-07-09T07:34:33;4.20;;;2.53;;
64601;SDS011;68371;42.630;23.192;2023-07-09T07:37:00;2.92;;;2.10;;
64601;SDS011;68371;42.630;23.192;2023-07-09T07:39:28;4.38;;;2.45;;
64601;SDS011;68371;42.630;23.192;2023-07-09T07:41:55;5.32;;;2.55;;
64601;SDS011;68371;42.630;23.192;2023-07-09T07:44:22;5.85;;;2.63;;
64601;SDS011;68371;42.630;23.192;2023-07-09T07:46:49;5.50;;;2.60;;
64601;SDS011;68371;42.630;23.192;2023-07-09T07:49:16;3.42;;;2.40;;
64601;SDS011;68371;42.630;23.192;2023-07-09T07:51:45;3.95;;;2.50;;
64601;SDS011;68371;42.630;23.192;2023-07-09T07:54:13;8.13;;;2.80;;
64601;SDS011;68371;42.630;23.192;2023-07-09T07:56:41;7.55;;;2.70;;
64601;SDS011;68371;42.630;23.192;2023-07-09T07:59:08;3.45;;;2.35;;
64601;SDS011;68371;42.630;23.192;2023-07-09T08:01:34;3.88;;;2.60;;
64601;SDS011;68371;42.630;23.192;2023-07-09T08:04:01;5.55;;;2.70;;
64601;SDS011;68371;42.630;23.192;2023-07-09T08:06:28;5.63;;;2.92;;
64601;SDS011;68371;42.630;23.192;2023-07-09T08:08:56;4.93;;;2.60;;
64601;SDS011;68371;42.630;23.192;2023-07-09T08:11:23;4.63;;;2.63;;
64601;SDS011;68371;42.630;23.192;2023-07-09T08:13:52;5.75;;;2.58;;
64601;SDS011;68371;42.630;23.192;2023-07-09T08:16:18;8.13;;;2.70;;
64601;SDS011;68371;42.630;23.192;2023-07-09T08:18:45;10.63;;;2.55;;
64601;SDS011;68371;42.630;23.192;2023-07-09T08:21:12;8.80;;;2.75;;
64601;SDS011;68371;42.630;23.192;2023-07-09T08:23:39;3.53;;;2.38;;
64601;SDS011;68371;42.630;23.192;2023-07-09T08:26:05;5.25;;;2.60;;
64601;SDS011;68371;42.630;23.192;2023-07-09T08:28:33;4.07;;;2.72;;
64601;SDS011;68371;42.630;23.192;2023-07-09T08:31:02;6.95;;;2.65;;
64601;SDS011;68371;42.630;23.192;2023-07-09T08:33:30;5.10;;;2.70;;
64601;SDS011;68371;42.630;23.192;2023-07-09T08:35:58;4.80;;;2.60;;
64601;SDS011;68371;42.630;23.192;2023-07-09T08:38:25;3.15;;;2.30;;
64601;SDS011;68371;42.630;23.192;2023-07-09T08:40:54;4.53;;;2.60;;
64601;SDS011;68371;42.630;23.192;2023-07-09T08:43:32;7.32;;;2.70;;
64601;SDS011;68371;42.630;23.192;2023-07-09T08:46:06;5.53;;;2.60;;
64601;SDS011;68371;42.630;23.192;2023-07-09T08:48:38;6.20;;;2.80;;
64601;SDS011;68371;42.630;23.192;2023-07-09T08:51:11;5.75;;;2.67;;
64601;SDS011;68371;42.630;23.192;2023-07-09T08:53:44;7.13;;;2.88;;
64601;SDS011;68371;42.630;23.192;2023-07-09T08:56:15;4.05;;;2.58;;
64601;SDS011;68371;42.630;23.192;2023-07-09T08:58:43;3.55;;;2.70;;
64601;SDS011;68371;42.630;23.192;2023-07-09T09:01:17;3.88;;;2.80;;
64601;SDS011;68371;42.630;23.192;2023-07-09T09:03:46;6.32;;;2.83;;
64601;SDS011;68371;42.630;23.192;2023-07-09T09:06:16;6.00;;;3.00;;
64601;SDS011;68371;42.630;23.192;2023-07-09T09:08:47;6.00;;;2.83;;
64601;SDS011;68371;42.630;23.192;2023-07-09T09:11:25;3.72;;;2.60;;
64601;SDS011;68371;42.630;23.192;2023-07-09T09:14:03;4.38;;;2.75;;
64601;SDS011;68371;42.630;23.192;2023-07-09T09:16:42;7.93;;;3.08;;
64601;SDS011;68371;42.630;23.192;2023-07-09T09:21:42;3.50;;;2.70;;
64601;SDS011;68371;42.630;23.192;2023-07-09T09:24:13;5.97;;;3.42;;
64601;SDS011;68371;42.630;23.192;2023-07-09T09:26:42;4.18;;;2.97;;
64601;SDS011;68371;42.630;23.192;2023-07-09T09:29:10;8.55;;;3.33;;
64601;SDS011;68371;42.630;23.192;2023-07-09T09:31:38;4.97;;;2.92;;
64601;SDS011;68371;42.630;23.192;2023-07-09T09:34:16;33.15;;;3.53;;
64601;SDS011;68371;42.630;23.192;2023-07-09T09:36:43;7.22;;;3.53;;
64601;SDS011;68371;42.630;23.192;2023-07-09T09:39:10;6.53;;;2.60;;
64601;SDS011;68371;42.630;23.192;2023-07-09T09:41:37;6.32;;;2.92;;
64601;SDS011;68371;42.630;23.192;2023-07-09T09:44:04;4.32;;;2.80;;
64601;SDS011;68371;42.630;23.192;2023-07-09T09:46:31;5.05;;;2.90;;
64601;SDS011;68371;42.630;23.192;2023-07-09T09:49:00;4.72;;;2.90;;
64601;SDS011;68371;42.630;23.192;2023-07-09T09:51:29;7.05;;;3.20;;
64601;SDS011;68371;42.630;23.192;2023-07-09T09:53:57;11.55;;;3.90;;
64601;SDS011;68371;42.630;23.192;2023-07-09T09:56:26;7.03;;;3.10;;
64601;SDS011;68371;42.630;23.192;2023-07-09T09:58:55;5.05;;;2.95;;
64601;SDS011;68371;42.630;23.192;2023-07-09T10:01:25;5.68;;;2.60;;
64601;SDS011;68371;42.630;23.192;2023-07-09T10:03:55;6.15;;;3.53;;
64601;SDS011;68371;42.630;23.192;2023-07-09T10:06:25;6.32;;;3.03;;
64601;SDS011;68371;42.630;23.192;2023-07-09T10:09:01;6.05;;;2.60;;
64601;SDS011;68371;42.630;23.192;2023-07-09T10:11:39;4.32;;;2.53;;
64601;SDS011;68371;42.630;23.192;2023-07-09T10:14:17;4.13;;;2.80;;
64601;SDS011;68371;42.630;23.192;2023-07-09T10:16:55;9.85;;;2.80;;
64601;SDS011;68371;42.630;23.192;2023-07-09T10:19:30;5.65;;;2.58;;
64601;SDS011;68371;42.630;23.192;2023-07-09T10:22:11;3.88;;;2.30;;
64601;SDS011;68371;42.630;23.192;2023-07-09T10:24:45;5.85;;;2.70;;
64601;SDS011;68371;42.630;23.192;2023-07-09T10:27:21;9.23;;;3.13;;
64601;SDS011;68371;42.630;23.192;2023-07-09T10:30:01;4.88;;;2.55;;
64601;SDS011;68371;42.630;23.192;2023-07-09T10:32:43;4.00;;;2.50;;
64601;SDS011;68371;42.630;23.192;2023-07-09T10:35:23;4.30;;;2.40;;
64601;SDS011;68371;42.630;23.192;2023-07-09T10:38:09;6.50;;;2.58;;
64601;SDS011;68371;42.630;23.192;2023-07-09T10:40:45;11.43;;;2.67;;
64601;SDS011;68371;42.630;23.192;2023-07-09T10:45:46;3.10;;;2.15;;
64601;SDS011;68371;42.630;23.192;2023-07-09T10:48:16;4.27;;;2.47;;
64601;SDS011;68371;42.630;23.192;2023-07-09T10:50:46;4.53;;;2.63;;
64601;SDS011;68371;42.630;23.192;2023-07-09T10:53:21;3.38;;;2.42;;
64601;SDS011;68371;42.630;23.192;2023-07-09T10:55:55;3.33;;;2.22;;
64601;SDS011;68371;42.630;23.192;2023-07-09T10:58:28;2.83;;;2.20;;
64601;SDS011;68371;42.630;23.192;2023-07-09T11:00:59;2.80;;;2.05;;
64601;SDS011;68371;42.630;23.192;2023-07-09T11:03:29;4.53;;;2.55;;
64601;SDS011;68371;42.630;23.192;2023-07-09T11:06:05;3.17;;;2.42;;
64601;SDS011;68371;42.630;23.192;2023-07-09T11:08:40;3.05;;;2.15;;
64601;SDS011;68371;42.630;23.192;2023-07-09T11:11:09;3.63;;;2.30;;
64601;SDS011;68371;42.630;23.192;2023-07-09T11:13:42;3.85;;;2.10;;
64601;SDS011;68371;42.630;23.192;2023-07-09T11:16:16;3.80;;;2.33;;
64601;SDS011;68371;42.630;23.192;2023-07-09T11:21:24;3.30;;;2.25;;
64601;SDS011;68371;42.630;23.192;2023-07-09T11:23:53;4.28;;;2.17;;
64601;SDS011;68371;42.630;23.192;2023-07-09T11:26:24;4.90;;;2.50;;
64601;SDS011;68371;42.630;23.192;2023-07-09T11:28:53;5.15;;;2.15;;
64601;SDS011;68371;42.630;23.192;2023-07-09T11:31:22;3.10;;;2.10;;
64601;SDS011;68371;42.630;23.192;2023-07-09T11:33:56;2.65;;;2.10;;
64601;SDS011;68371;42.630;23.192;2023-07-09T11:36:28;4.97;;;2.55;;
64601;SDS011;68371;42.630;23.192;2023-07-09T11:38:58;4.95;;;2.20;;
64601;SDS011;68371;42.630;23.192;2023-07-09T11:41:34;3.42;;;1.95;;
64601;SDS011;68371;42.630;23.192;2023-07-09T11:44:14;3.70;;;2.25;;
64601;SDS011;68371;42.630;23.192;2023-07-09T11:46:50;2.60;;;2.10;;
64601;SDS011;68371;42.630;23.192;2023-07-09T11:49:24;5.75;;;2.35;;
64601;SDS011;68371;42.630;23.192;2023-07-09T11:51:54;3.25;;;2.30;;
64601;SDS011;68371;42.630;23.192;2023-07-09T11:54:26;3.05;;;2.15;;
64601;SDS011;68371;42.630;23.192;2023-07-09T11:56:53;2.70;;;1.90;;
64601;SDS011;68371;42.630;23.192;2023-07-09T11:59:21;3.10;;;2.30;;
64601;SDS011;68371;42.630;23.192;2023-07-09T12:01:48;3.20;;;2.22;;
64601;SDS011;68371;42.630;23.192;2023-07-09T12:04:16;4.53;;;2.45;;
64601;SDS011;68371;42.630;23.192;2023-07-09T12:06:45;2.67;;;2.20;;
64601;SDS011;68371;42.630;23.192;2023-07-09T12:09:13;5.78;;;2.10;;
64601;SDS011;68371;42.630;23.192;2023-07-09T12:11:44;3.87;;;2.30;;
64601;SDS011;68371;42.630;23.192;2023-07-09T12:14:13;3.90;;;2.25;;
64601;SDS011;68371;42.630;23.192;2023-07-09T12:16:41;6.85;;;2.17;;
64601;SDS011;68371;42.630;23.192;2023-07-09T12:19:11;5.70;;;2.30;;
64601;SDS011;68371;42.630;23.192;2023-07-09T12:21:40;4.38;;;2.13;;
64601;SDS011;68371;42.630;23.192;2023-07-09T12:24:18;3.53;;;2.25;;
64601;SDS011;68371;42.630;23.192;2023-07-09T12:26:51;2.60;;;2.08;;
64601;SDS011;68371;42.630;23.192;2023-07-09T12:29:18;2.50;;;1.90;;
64601;SDS011;68371;42.630;23.192;2023-07-09T12:31:44;4.60;;;2.20;;
64601;SDS011;68371;42.630;23.192;2023-07-09T12:34:12;4.05;;;2.15;;
64601;SDS011;68371;42.630;23.192;2023-07-09T12:36:43;4.30;;;2.17;;
64601;SDS011;68371;42.630;23.192;2023-07-09T12:39:12;4.00;;;2.25;;
64601;SDS011;68371;42.630;23.192;2023-07-09T12:41:43;3.60;;;2.00;;
64601;SDS011;68371;42.630;23.192;2023-07-09T12:44:16;2.80;;;2.08;;
64601;SDS011;68371;42.630;23.192;2023-07-09T12:46:44;5.55;;;1.95;;
64601;SDS011;68371;42.630;23.192;2023-07-09T12:49:18;2.65;;;1.90;;
64601;SDS011;68371;42.630;23.192;2023-07-09T12:51:47;3.45;;;2.00;;
64601;SDS011;68371;42.630;23.192;2023-07-09T12:54:15;4.85;;;1.98;;
64601;SDS011;68371;42.630;23.192;2023-07-09T12:56:42;3.03;;;1.95;;
64601;SDS011;68371;42.630;23.192;2023-07-09T12:59:15;3.75;;;2.03;;
64601;SDS011;68371;42.630;23.192;2023-07-09T13:01:47;3.22;;;2.08;;
64601;SDS011;68371;42.630;23.192;2023-07-09T13:04:15;5.53;;;2.00;;
64601;SDS011;68371;42.630;23.192;2023-07-09T13:06:42;3.20;;;2.03;;
64601;SDS011;68371;42.630;23.192;2023-07-09T13:09:13;3.92;;;2.10;;
64601;SDS011;68371;42.630;23.192;2023-07-09T13:11:45;2.97;;;2.08;;
64601;SDS011;68371;42.630;23.192;2023-07-09T13:14:17;4.13;;;2.33;;
64601;SDS011;68371;42.630;23.192;2023-07-09T13:16:46;4.63;;;2.05;;
64601;SDS011;68371;42.630;23.192;2023-07-09T13:19:15;3.25;;;2.53;;
64601;SDS011;68371;42.630;23.192;2023-07-09T13:21:42;4.60;;;2.20;;
64601;SDS011;68371;42.630;23.192;2023-07-09T13:24:11;6.63;;;2.00;;
64601;SDS011;68371;42.630;23.192;2023-07-09T13:26:40;3.75;;;2.20;;
64601;SDS011;68371;42.630;23.192;2023-07-09T13:29:10;6.15;;;2.03;;
64601;SDS011;68371;42.630;23.192;2023-07-09T13:31:43;3.20;;;2.20;;
64601;SDS011;68371;42.630;23.192;2023-07-09T13:34:13;12.52;;;2.05;;
64601;SDS011;68371;42.630;23.192;2023-07-09T13:36:45;4.30;;;1.80;;
64601;SDS011;68371;42.630;23.192;2023-07-09T13:39:12;6.70;;;2.28;;
64601;SDS011;68371;42.630;23.192;2023-07-09T13:41:39;3.35;;;2.00;;
64601;SDS011;68371;42.630;23.192;2023-07-09T13:44:10;3.28;;;1.95;;
64601;SDS011;68371;42.630;23.192;2023-07-09T13:46:39;5.53;;;2.38;;
64601;SDS011;68371;42.630;23.192;2023-07-09T13:49:12;3.72;;;2.20;;
64601;SDS011;68371;42.630;23.192;2023-07-09T13:51:40;7.43;;;2.30;;
64601;SDS011;68371;42.630;23.192;2023-07-09T13:54:14;4.90;;;2.22;;
64601;SDS011;68371;42.630;23.192;2023-07-09T13:56:43;4.82;;;2.05;;
64601;SDS011;68371;42.630;23.192;2023-07-09T13:59:12;8.07;;;1.92;;
64601;SDS011;68371;42.630;23.192;2023-07-09T14:01:43;4.55;;;2.05;;
64601;SDS011;68371;42.630;23.192;2023-07-09T14:04:13;5.82;;;2.10;;
64601;SDS011;68371;42.630;23.192;2023-07-09T14:06:43;3.97;;;2.30;;
64601;SDS011;68371;42.630;23.192;2023-07-09T14:09:11;4.63;;;2.45;;
64601;SDS011;68371;42.630;23.192;2023-07-09T14:11:40;7.18;;;2.10;;
64601;SDS011;68371;42.630;23.192;2023-07-09T14:16:43;4.60;;;2.00;;
64601;SDS011;68371;42.630;23.192;2023-07-09T14:19:13;3.15;;;2.08;;
64601;SDS011;68371;42.630;23.192;2023-07-09T14:21:41;6.70;;;2.35;;
64601;SDS011;68371;42.630;23.192;2023-07-09T14:24:17;6.95;;;2.17;;
64601;SDS011;68371;42.630;23.192;2023-07-09T14:26:46;3.28;;;2.20;;
64601;SDS011;68371;42.630;23.192;2023-07-09T14:29:13;6.53;;;2.28;;
64601;SDS011;68371;42.630;23.192;2023-07-09T14:31:41;3.92;;;2.40;;
64601;SDS011;68371;42.630;23.192;2023-07-09T14:34:20;10.48;;;2.35;;
64601;SDS011;68371;42.630;23.192;2023-07-09T14:36:48;4.50;;;2.40;;
64601;SDS011;68371;42.630;23.192;2023-07-09T14:39:16;4.90;;;2.25;;
64601;SDS011;68371;42.630;23.192;2023-07-09T14:41:43;2.75;;;1.90;;
64601;SDS011;68371;42.630;23.192;2023-07-09T14:44:15;4.28;;;2.03;;
64601;SDS011;68371;42.630;23.192;2023-07-09T14:46:48;3.85;;;2.13;;
64601;SDS011;68371;42.630;23.192;2023-07-09T14:49:15;2.90;;;2.17;;
64601;SDS011;68371;42.630;23.192;2023-07-09T14:51:43;3.78;;;2.47;;
64601;SDS011;68371;42.630;23.192;2023-07-09T14:54:17;7.28;;;2.22;;
64601;SDS011;68371;42.630;23.192;2023-07-09T14:56:45;4.50;;;2.15;;
64601;SDS011;68371;42.630;23.192;2023-07-09T14:59:12;13.40;;;2.42;;